sensor_id;sensor_type;location;lat;lon;timestamp;temperature;humidity
71184;DHT22;58887;51.980;4.464;2023-04-01T00:01:06;9.71;91.31
71184;DHT22;58887;51.980;4.464;2023-04-01T00:03:34;9.78;91.18
71184;DHT22;58887;51.980;4.464;2023-04-01T00:06:00;9.74;91.27
71184;DHT22;58887;51.980;4.464;2023-04-01T00:08:27;9.78;91.27
71184;DHT22;58887;51.980;4.464;2023-04-01T00:10:54;9.81;91.12
71184;DHT22;58887;51.980;4.464;2023-04-01T00:13:19;9.77;91.59
71184;DHT22;58887;51.980;4.464;2023-04-01T00:15:45;9.80;91.13
71184;DHT22;58887;51.980;4.464;2023-04-01T00:18:11;9.88;91.03
71184;DHT22;58887;51.980;4.464;2023-04-01T00:20:37;9.80;91.11
71184;DHT22;58887;51.980;4.464;2023-04-01T00:23:03;9.92;90.86
71184;DHT22;58887;51.980;4.464;2023-04-01T00:25:30;9.73;91.13
71184;DHT22;58887;51.980;4.464;2023-04-01T00:27:56;9.77;90.94
71184;DHT22;58887;51.980;4.464;2023-04-01T00:30:21;9.69;91.23
71184;DHT22;58887;51.980;4.464;2023-04-01T00:32:51;9.61;91.50
71184;DHT22;58887;51.980;4.464;2023-04-01T00:35:17;9.73;91.29
71184;DHT22;58887;51.980;4.464;2023-04-01T00:37:43;9.64;91.33
71184;DHT22;58887;51.980;4.464;2023-04-01T00:40:33;9.67;91.36
71184;DHT22;58887;51.980;4.464;2023-04-01T00:42:59;9.47;91.59
71184;DHT22;58887;51.980;4.464;2023-04-01T00:45:32;9.54;91.71
71184;DHT22;58887;51.980;4.464;2023-04-01T00:48:03;9.74;91.35
71184;DHT22;58887;51.980;4.464;2023-04-01T00:50:33;9.75;91.09
71184;DHT22;58887;51.980;4.464;2023-04-01T00:53:01;9.64;91.24
71184;DHT22;58887;51.980;4.464;2023-04-01T00:55:32;9.73;91.06
71184;DHT22;58887;51.980;4.464;2023-04-01T00:58:03;9.73;91.01
71184;DHT22;58887;51.980;4.464;2023-04-01T01:00:30;9.78;90.84
71184;DHT22;58887;51.980;4.464;2023-04-01T01:02:57;9.80;90.69
71184;DHT22;58887;51.980;4.464;2023-04-01T01:11:16;9.85;90.70
71184;DHT22;58887;51.980;4.464;2023-04-01T01:14:01;9.80;90.45
71184;DHT22;58887;51.980;4.464;2023-04-01T01:16:42;9.70;90.90
71184;DHT22;58887;51.980;4.464;2023-04-01T01:19:21;9.73;90.71
71184;DHT22;58887;51.980;4.464;2023-04-01T01:27:26;9.78;90.44
71184;DHT22;58887;51.980;4.464;2023-04-01T01:35:46;9.75;90.67
71184;DHT22;58887;51.980;4.464;2023-04-01T01:38:16;9.77;90.58
71184;DHT22;58887;51.980;4.464;2023-04-01T01:40:48;9.73;90.37
71184;DHT22;58887;51.980;4.464;2023-04-01T01:43:21;9.87;90.41
71184;DHT22;58887;51.980;4.464;2023-04-01T01:45:57;9.81;90.40
71184;DHT22;58887;51.980;4.464;2023-04-01T01:48:26;9.88;90.31
71184;DHT22;58887;51.980;4.464;2023-04-01T01:50:52;9.85;90.41
71184;DHT22;58887;51.980;4.464;2023-04-01T01:53:18;9.90;90.22
71184;DHT22;58887;51.980;4.464;2023-04-01T01:55:46;9.78;90.27
71184;DHT22;58887;51.980;4.464;2023-04-01T02:00:59;9.97;90.13
71184;DHT22;58887;51.980;4.464;2023-04-01T02:03:30;10.03;90.00
71184;DHT22;58887;51.980;4.464;2023-04-01T02:06:00;9.99;89.88
71184;DHT22;58887;51.980;4.464;2023-04-01T02:08:37;9.88;90.19
71184;DHT22;58887;51.980;4.464;2023-04-01T02:11:10;9.87;90.30
71184;DHT22;58887;51.980;4.464;2023-04-01T02:16:24;10.02;90.07
71184;DHT22;58887;51.980;4.464;2023-04-01T02:18:55;9.95;89.77
71184;DHT22;58887;51.980;4.464;2023-04-01T02:21:26;9.84;90.07
71184;DHT22;58887;51.980;4.464;2023-04-01T02:23:54;9.99;89.94
71184;DHT22;58887;51.980;4.464;2023-04-01T02:26:24;9.98;89.83
71184;DHT22;58887;51.980;4.464;2023-04-01T02:28:53;9.94;89.94
71184;DHT22;58887;51.980;4.464;2023-04-01T02:31:23;9.88;90.05
71184;DHT22;58887;51.980;4.464;2023-04-01T02:33:49;9.92;90.05
71184;DHT22;58887;51.980;4.464;2023-04-01T02:36:16;9.82;90.20
71184;DHT22;58887;51.980;4.464;2023-04-01T02:38:45;9.87;90.58
71184;DHT22;58887;51.980;4.464;2023-04-01T02:41:10;9.94;90.05
71184;DHT22;58887;51.980;4.464;2023-04-01T02:43:38;9.97;90.03
71184;DHT22;58887;51.980;4.464;2023-04-01T02:46:03;10.02;89.93
71184;DHT22;58887;51.980;4.464;2023-04-01T02:48:29;9.95;89.91
71184;DHT22;58887;51.980;4.464;2023-04-01T02:50:54;9.99;90.01
71184;DHT22;58887;51.980;4.464;2023-04-01T02:53:20;10.11;89.93
71184;DHT22;58887;51.980;4.464;2023-04-01T02:55:45;10.03;89.58
71184;DHT22;58887;51.980;4.464;2023-04-01T02:58:11;9.98;90.23
71184;DHT22;58887;51.980;4.464;2023-04-01T03:00:37;9.90;90.16
71184;DHT22;58887;51.980;4.464;2023-04-01T03:03:03;9.94;90.42
71184;DHT22;58887;51.980;4.464;2023-04-01T03:05:29;10.11;90.12
71184;DHT22;58887;51.980;4.464;2023-04-01T03:07:54;10.08;89.97
71184;DHT22;58887;51.980;4.464;2023-04-01T03:10:20;10.11;90.00
71184;DHT22;58887;51.980;4.464;2023-04-01T03:12:46;10.23;89.85
71184;DHT22;58887;51.980;4.464;2023-04-01T03:15:13;10.21;89.84
71184;DHT22;58887;51.980;4.464;2023-04-01T03:17:40;10.26;89.94
71184;DHT22;58887;51.980;4.464;2023-04-01T03:20:07;10.16;90.04
71184;DHT22;58887;51.980;4.464;2023-04-01T03:22:34;10.31;89.78
71184;DHT22;58887;51.980;4.464;2023-04-01T03:25:01;10.23;90.03
71184;DHT22;58887;51.980;4.464;2023-04-01T03:27:27;10.32;89.98
71184;DHT22;58887;51.980;4.464;2023-04-01T03:29:52;10.42;89.62
71184;DHT22;58887;51.980;4.464;2023-04-01T03:32:18;10.32;89.69
71184;DHT22;58887;51.980;4.464;2023-04-01T03:34:43;10.39;89.55
71184;DHT22;58887;51.980;4.464;2023-04-01T03:37:09;10.32;89.75
71184;DHT22;58887;51.980;4.464;2023-04-01T03:39:34;10.31;89.85
71184;DHT22;58887;51.980;4.464;2023-04-01T03:42:00;10.26;89.81
71184;DHT22;58887;51.980;4.464;2023-04-01T03:44:26;10.28;89.84
71184;DHT22;58887;51.980;4.464;2023-04-01T03:46:51;10.23;89.87
71184;DHT22;58887;51.980;4.464;2023-04-01T03:49:17;10.35;89.78
71184;DHT22;58887;51.980;4.464;2023-04-01T03:51:43;10.35;89.72
71184;DHT22;58887;51.980;4.464;2023-04-01T03:54:10;10.35;89.82
71184;DHT22;58887;51.980;4.464;2023-04-01T03:56:36;10.25;90.08
71184;DHT22;58887;51.980;4.464;2023-04-01T03:59:05;10.19;90.20
71184;DHT22;58887;51.980;4.464;2023-04-01T04:01:31;10.25;89.95
71184;DHT22;58887;51.980;4.464;2023-04-01T04:03:57;10.36;89.79
71184;DHT22;58887;51.980;4.464;2023-04-01T04:06:24;10.36;89.59
71184;DHT22;58887;51.980;4.464;2023-04-01T04:08:50;10.43;89.80
71184;DHT22;58887;51.980;4.464;2023-04-01T04:11:16;10.31;89.80
71184;DHT22;58887;51.980;4.464;2023-04-01T04:13:42;10.23;90.13
71184;DHT22;58887;51.980;4.464;2023-04-01T04:16:09;10.28;90.02
71184;DHT22;58887;51.980;4.464;2023-04-01T04:18:36;10.28;89.93
71184;DHT22;58887;51.980;4.464;2023-04-01T04:21:03;10.36;90.01
71184;DHT22;58887;51.980;4.464;2023-04-01T04:23:29;10.36;89.78
71184;DHT22;58887;51.980;4.464;2023-04-01T04:26:05;10.26;89.92
71184;DHT22;58887;51.980;4.464;2023-04-01T04:28:32;10.32;90.10
71184;DHT22;58887;51.980;4.464;2023-04-01T04:30:58;10.39;89.78
71184;DHT22;58887;51.980;4.464;2023-04-01T04:33:24;10.33;89.55
71184;DHT22;58887;51.980;4.464;2023-04-01T04:35:51;10.32;89.68
71184;DHT22;58887;51.980;4.464;2023-04-01T04:38:17;10.36;89.39
71184;DHT22;58887;51.980;4.464;2023-04-01T04:40:43;10.29;89.52
71184;DHT22;58887;51.980;4.464;2023-04-01T04:43:14;10.36;89.41
71184;DHT22;58887;51.980;4.464;2023-04-01T04:45:41;10.19;89.47
71184;DHT22;58887;51.980;4.464;2023-04-01T04:48:11;10.35;89.26
71184;DHT22;58887;51.980;4.464;2023-04-01T04:50:42;10.38;89.17
71184;DHT22;58887;51.980;4.464;2023-04-01T04:53:14;10.28;89.20
71184;DHT22;58887;51.980;4.464;2023-04-01T04:55:48;10.21;89.41
71184;DHT22;58887;51.980;4.464;2023-04-01T04:58:15;10.05;89.28
71184;DHT22;58887;51.980;4.464;2023-04-01T05:00:41;10.23;89.55
71184;DHT22;58887;51.980;4.464;2023-04-01T05:03:06;10.18;89.73
71184;DHT22;58887;51.980;4.464;2023-04-01T05:05:32;10.12;89.31
71184;DHT22;58887;51.980;4.464;2023-04-01T05:07:58;10.06;89.85
71184;DHT22;58887;51.980;4.464;2023-04-01T05:10:23;10.18;89.60
71184;DHT22;58887;51.980;4.464;2023-04-01T05:12:49;10.19;89.38
71184;DHT22;58887;51.980;4.464;2023-04-01T05:15:14;10.25;89.45
71184;DHT22;58887;51.980;4.464;2023-04-01T05:17:40;10.16;89.56
71184;DHT22;58887;51.980;4.464;2023-04-01T05:20:06;10.08;89.64
71184;DHT22;58887;51.980;4.464;2023-04-01T05:22:35;10.05;89.76
71184;DHT22;58887;51.980;4.464;2023-04-01T05:25:00;10.18;89.57
71184;DHT22;58887;51.980;4.464;2023-04-01T05:27:26;10.16;89.62
71184;DHT22;58887;51.980;4.464;2023-04-01T05:29:51;10.05;89.49
71184;DHT22;58887;51.980;4.464;2023-04-01T05:32:17;10.11;89.69
71184;DHT22;58887;51.980;4.464;2023-04-01T05:34:42;10.06;89.71
71184;DHT22;58887;51.980;4.464;2023-04-01T05:37:08;10.13;89.52
71184;DHT22;58887;51.980;4.464;2023-04-01T05:39:37;10.22;89.23
71184;DHT22;58887;51.980;4.464;2023-04-01T05:42:05;10.19;89.27
71184;DHT22;58887;51.980;4.464;2023-04-01T05:44:31;10.18;89.16
71184;DHT22;58887;51.980;4.464;2023-04-01T05:46:57;10.08;89.45
71184;DHT22;58887;51.980;4.464;2023-04-01T05:49:22;10.06;89.71
71184;DHT22;58887;51.980;4.464;2023-04-01T05:51:48;10.12;89.51
71184;DHT22;58887;51.980;4.464;2023-04-01T05:54:13;10.13;89.29
71184;DHT22;58887;51.980;4.464;2023-04-01T05:56:39;10.16;89.19
71184;DHT22;58887;51.980;4.464;2023-04-01T05:59:05;10.11;89.26
71184;DHT22;58887;51.980;4.464;2023-04-01T06:01:30;10.16;89.23
71184;DHT22;58887;51.980;4.464;2023-04-01T06:03:57;10.11;89.24
71184;DHT22;58887;51.980;4.464;2023-04-01T06:06:28;10.16;89.05
71184;DHT22;58887;51.980;4.464;2023-04-01T06:08:57;9.92;89.63
71184;DHT22;58887;51.980;4.464;2023-04-01T06:11:36;10.02;89.36
71184;DHT22;58887;51.980;4.464;2023-04-01T06:17:09;10.05;89.02
71184;DHT22;58887;51.980;4.464;2023-04-01T06:22:49;9.91;89.47
71184;DHT22;58887;51.980;4.464;2023-04-01T06:25:38;9.97;89.35
71184;DHT22;58887;51.980;4.464;2023-04-01T06:37:40;9.97;89.25
71184;DHT22;58887;51.980;4.464;2023-04-01T06:45:53;9.92;89.30
71184;DHT22;58887;51.980;4.464;2023-04-01T06:56:18;10.13;88.74
71184;DHT22;58887;51.980;4.464;2023-04-01T06:58:52;10.15;88.70
71184;DHT22;58887;51.980;4.464;2023-04-01T07:01:27;10.33;88.69
71184;DHT22;58887;51.980;4.464;2023-04-01T07:04:01;10.33;88.31
71184;DHT22;58887;51.980;4.464;2023-04-01T07:06:53;10.45;88.17
71184;DHT22;58887;51.980;4.464;2023-04-01T07:09:30;10.45;87.89
71184;DHT22;58887;51.980;4.464;2023-04-01T07:12:02;10.46;88.05
71184;DHT22;58887;51.980;4.464;2023-04-01T07:14:38;10.33;88.28
71184;DHT22;58887;51.980;4.464;2023-04-01T07:17:17;10.45;88.36
71184;DHT22;58887;51.980;4.464;2023-04-01T07:22:33;10.38;88.44
71184;DHT22;58887;51.980;4.464;2023-04-01T07:25:11;10.42;88.49
71184;DHT22;58887;51.980;4.464;2023-04-01T07:27:37;10.39;88.32
71184;DHT22;58887;51.980;4.464;2023-04-01T07:30:16;10.41;88.68
71184;DHT22;58887;51.980;4.464;2023-04-01T07:32:49;10.49;88.42
71184;DHT22;58887;51.980;4.464;2023-04-01T07:40:43;10.62;87.85
71184;DHT22;58887;51.980;4.464;2023-04-01T07:43:40;10.60;87.48
71184;DHT22;58887;51.980;4.464;2023-04-01T07:49:06;10.52;87.57
71184;DHT22;58887;51.980;4.464;2023-04-01T07:52:00;10.55;87.58
71184;DHT22;58887;51.980;4.464;2023-04-01T07:54:45;10.59;87.74
71184;DHT22;58887;51.980;4.464;2023-04-01T07:59:59;10.60;88.02
71184;DHT22;58887;51.980;4.464;2023-04-01T08:05:29;10.70;87.59
71184;DHT22;58887;51.980;4.464;2023-04-01T08:08:19;10.71;87.71
71184;DHT22;58887;51.980;4.464;2023-04-01T08:11:04;10.67;87.44
71184;DHT22;58887;51.980;4.464;2023-04-01T08:13:48;10.83;87.47
71184;DHT22;58887;51.980;4.464;2023-04-01T08:16:34;10.85;86.96
71184;DHT22;58887;51.980;4.464;2023-04-01T08:22:33;10.73;87.16
71184;DHT22;58887;51.980;4.464;2023-04-01T08:25:06;10.83;87.38
71184;DHT22;58887;51.980;4.464;2023-04-01T08:27:39;10.83;86.77
71184;DHT22;58887;51.980;4.464;2023-04-01T08:30:25;10.79;86.73
71184;DHT22;58887;51.980;4.464;2023-04-01T08:38:24;10.79;87.20
71184;DHT22;58887;51.980;4.464;2023-04-01T08:41:20;10.71;87.67
71184;DHT22;58887;51.980;4.464;2023-04-01T08:52:36;10.94;87.30
71184;DHT22;58887;51.980;4.464;2023-04-01T08:55:25;10.94;86.88
71184;DHT22;58887;51.980;4.464;2023-04-01T08:58:06;11.01;86.74
71184;DHT22;58887;51.980;4.464;2023-04-01T09:19:53;10.77;87.01
71184;DHT22;58887;51.980;4.464;2023-04-01T09:25:26;10.85;87.47
71184;DHT22;58887;51.980;4.464;2023-04-01T09:36:24;10.71;87.47
71184;DHT22;58887;51.980;4.464;2023-04-01T09:38:59;10.84;87.74
71184;DHT22;58887;51.980;4.464;2023-04-01T09:44:37;10.90;87.14
71184;DHT22;58887;51.980;4.464;2023-04-01T09:50:14;10.76;87.88
71184;DHT22;58887;51.980;4.464;2023-04-01T09:53:04;10.91;87.24
71184;DHT22;58887;51.980;4.464;2023-04-01T09:55:56;10.83;87.70
71184;DHT22;58887;51.980;4.464;2023-04-01T09:58:33;10.90;87.73
71184;DHT22;58887;51.980;4.464;2023-04-01T10:20:25;11.25;86.51
71184;DHT22;58887;51.980;4.464;2023-04-01T10:42:27;11.25;87.00
71184;DHT22;58887;51.980;4.464;2023-04-01T10:57:16;11.24;86.86
71184;DHT22;58887;51.980;4.464;2023-04-01T11:08:30;11.17;86.83
71184;DHT22;58887;51.980;4.464;2023-04-01T11:20:03;11.41;86.49
71184;DHT22;58887;51.980;4.464;2023-04-01T11:36:34;11.12;86.99
71184;DHT22;58887;51.980;4.464;2023-04-01T11:39:31;11.22;86.93
71184;DHT22;58887;51.980;4.464;2023-04-01T11:42:34;11.30;86.84
71184;DHT22;58887;51.980;4.464;2023-04-01T11:45:37;11.42;86.51
71184;DHT22;58887;51.980;4.464;2023-04-01T11:48:22;11.48;86.38
71184;DHT22;58887;51.980;4.464;2023-04-01T12:04:57;11.69;85.75
71184;DHT22;58887;51.980;4.464;2023-04-01T12:10:26;11.57;85.60
71184;DHT22;58887;51.980;4.464;2023-04-01T12:13:07;11.51;86.04
71184;DHT22;58887;51.980;4.464;2023-04-01T12:16:07;11.46;86.12
71184;DHT22;58887;51.980;4.464;2023-04-01T12:18:54;11.58;85.91
71184;DHT22;58887;51.980;4.464;2023-04-01T12:21:57;11.49;86.22
71184;DHT22;58887;51.980;4.464;2023-04-01T12:30:05;11.55;85.60
71184;DHT22;58887;51.980;4.464;2023-04-01T12:46:46;12.07;84.81
71184;DHT22;58887;51.980;4.464;2023-04-01T12:52:51;11.91;85.02
71184;DHT22;58887;51.980;4.464;2023-04-01T12:55:35;12.01;85.33
71184;DHT22;58887;51.980;4.464;2023-04-01T13:14:50;11.94;85.00
71184;DHT22;58887;51.980;4.464;2023-04-01T13:17:58;11.86;84.99
71184;DHT22;58887;51.980;4.464;2023-04-01T13:20:44;11.82;84.60
71184;DHT22;58887;51.980;4.464;2023-04-01T13:26:10;12.06;84.57
71184;DHT22;58887;51.980;4.464;2023-04-01T13:29:01;12.09;84.65
71184;DHT22;58887;51.980;4.464;2023-04-01T13:40:18;12.17;84.17
71184;DHT22;58887;51.980;4.464;2023-04-01T13:42:54;11.83;84.64
71184;DHT22;58887;51.980;4.464;2023-04-01T13:46:06;11.75;85.34
71184;DHT22;58887;51.980;4.464;2023-04-01T13:54:31;11.83;84.65
71184;DHT22;58887;51.980;4.464;2023-04-01T13:57:34;11.66;84.73
71184;DHT22;58887;51.980;4.464;2023-04-01T14:06:19;11.59;84.40
71184;DHT22;58887;51.980;4.464;2023-04-01T14:14:36;12.07;84.19
71184;DHT22;58887;51.980;4.464;2023-04-01T14:17:17;12.00;84.31
71184;DHT22;58887;51.980;4.464;2023-04-01T14:19:51;12.13;84.29
71184;DHT22;58887;51.980;4.464;2023-04-01T14:22:44;12.09;83.49
71184;DHT22;58887;51.980;4.464;2023-04-01T14:45:40;12.03;84.78
71184;DHT22;58887;51.980;4.464;2023-04-01T14:48:31;12.28;84.06
71184;DHT22;58887;51.980;4.464;2023-04-01T14:51:21;12.36;84.15
71184;DHT22;58887;51.980;4.464;2023-04-01T14:54:06;12.51;83.67
71184;DHT22;58887;51.980;4.464;2023-04-01T14:56:51;12.67;83.42
71184;DHT22;58887;51.980;4.464;2023-04-01T14:59:28;12.57;83.52
71184;DHT22;58887;51.980;4.464;2023-04-01T15:02:22;12.41;83.77
71184;DHT22;58887;51.980;4.464;2023-04-01T15:07:58;12.38;85.17
71184;DHT22;58887;51.980;4.464;2023-04-01T15:13:41;12.04;85.02
71184;DHT22;58887;51.980;4.464;2023-04-01T15:19:04;12.04;85.68
71184;DHT22;58887;51.980;4.464;2023-04-01T15:27:35;11.89;86.54
71184;DHT22;58887;51.980;4.464;2023-04-01T15:30:22;11.89;85.85
71184;DHT22;58887;51.980;4.464;2023-04-01T15:32:55;11.66;86.55
71184;DHT22;58887;51.980;4.464;2023-04-01T15:36:19;11.76;86.30
71184;DHT22;58887;51.980;4.464;2023-04-01T15:38:45;11.73;86.43
71184;DHT22;58887;51.980;4.464;2023-04-01T15:41:16;11.80;86.15
71184;DHT22;58887;51.980;4.464;2023-04-01T15:43:45;11.76;86.80
71184;DHT22;58887;51.980;4.464;2023-04-01T15:46:20;12.00;86.25
71184;DHT22;58887;51.980;4.464;2023-04-01T16:03:29;11.63;86.74
71184;DHT22;58887;51.980;4.464;2023-04-01T16:11:24;11.76;86.83
71184;DHT22;58887;51.980;4.464;2023-04-01T16:14:12;11.90;86.54
71184;DHT22;58887;51.980;4.464;2023-04-01T16:16:58;12.01;86.45
71184;DHT22;58887;51.980;4.464;2023-04-01T16:19:41;12.06;86.19
71184;DHT22;58887;51.980;4.464;2023-04-01T16:22:20;12.10;85.94
71184;DHT22;58887;51.980;4.464;2023-04-01T16:25:07;12.13;85.90
71184;DHT22;58887;51.980;4.464;2023-04-01T16:27:58;12.09;85.98
71184;DHT22;58887;51.980;4.464;2023-04-01T16:31:05;12.12;85.51
71184;DHT22;58887;51.980;4.464;2023-04-01T16:33:34;12.13;85.70
71184;DHT22;58887;51.980;4.464;2023-04-01T16:39:15;11.93;85.11
71184;DHT22;58887;51.980;4.464;2023-04-01T16:42:31;11.70;85.26
71184;DHT22;58887;51.980;4.464;2023-04-01T16:45:34;11.73;85.84
71184;DHT22;58887;51.980;4.464;2023-04-01T16:48:12;11.76;85.57
71184;DHT22;58887;51.980;4.464;2023-04-01T16:50:55;11.68;85.71
71184;DHT22;58887;51.980;4.464;2023-04-01T16:56:04;11.52;86.23
71184;DHT22;58887;51.980;4.464;2023-04-01T16:58:42;11.61;86.10
71184;DHT22;58887;51.980;4.464;2023-04-01T17:01:21;11.57;86.19
71184;DHT22;58887;51.980;4.464;2023-04-01T17:04:00;11.57;86.19
71184;DHT22;58887;51.980;4.464;2023-04-01T17:06:56;11.62;85.90
71184;DHT22;58887;51.980;4.464;2023-04-01T17:12:10;11.57;85.96
71184;DHT22;58887;51.980;4.464;2023-04-01T17:17:39;11.46;86.03
71184;DHT22;58887;51.980;4.464;2023-04-01T17:22:40;11.51;85.68
71184;DHT22;58887;51.980;4.464;2023-04-01T17:28:07;11.43;85.73
71184;DHT22;58887;51.980;4.464;2023-04-01T17:39:07;11.20;85.34
71184;DHT22;58887;51.980;4.464;2023-04-01T17:42:03;11.00;85.67
71184;DHT22;58887;51.980;4.464;2023-04-01T17:50:07;11.00;85.82
71184;DHT22;58887;51.980;4.464;2023-04-01T17:52:45;10.97;85.68
71184;DHT22;58887;51.980;4.464;2023-04-01T17:59:00;10.93;85.91
71184;DHT22;58887;51.980;4.464;2023-04-01T18:01:31;10.93;85.93
71184;DHT22;58887;51.980;4.464;2023-04-01T18:04:17;10.90;85.96
71184;DHT22;58887;51.980;4.464;2023-04-01T18:08:00;10.94;85.90
71184;DHT22;58887;51.980;4.464;2023-04-01T18:13:20;10.90;85.96
71184;DHT22;58887;51.980;4.464;2023-04-01T18:18:48;11.04;85.11
71184;DHT22;58887;51.980;4.464;2023-04-01T18:21:29;11.00;85.25
71184;DHT22;58887;51.980;4.464;2023-04-01T18:24:10;11.03;85.52
71184;DHT22;58887;51.980;4.464;2023-04-01T18:26:43;10.93;85.62
71184;DHT22;58887;51.980;4.464;2023-04-01T18:32:24;10.85;86.00
71184;DHT22;58887;51.980;4.464;2023-04-01T18:37:37;10.81;85.99
71184;DHT22;58887;51.980;4.464;2023-04-01T18:45:59;10.77;86.10
71184;DHT22;58887;51.980;4.464;2023-04-01T18:48:51;10.85;86.07
71184;DHT22;58887;51.980;4.464;2023-04-01T18:51:32;10.74;85.95
71184;DHT22;58887;51.980;4.464;2023-04-01T18:54:12;10.64;86.34
71184;DHT22;58887;51.980;4.464;2023-04-01T18:56:44;10.64;86.04
71184;DHT22;58887;51.980;4.464;2023-04-01T18:59:27;10.55;86.29
71184;DHT22;58887;51.980;4.464;2023-04-01T19:07:46;10.59;86.03
71184;DHT22;58887;51.980;4.464;2023-04-01T19:10:22;10.60;85.67
71184;DHT22;58887;51.980;4.464;2023-04-01T19:13:22;10.50;85.58
71184;DHT22;58887;51.980;4.464;2023-04-01T19:21:35;10.32;85.20
71184;DHT22;58887;51.980;4.464;2023-04-01T19:26:48;10.21;85.56
71184;DHT22;58887;51.980;4.464;2023-04-01T19:34:39;10.32;85.04
71184;DHT22;58887;51.980;4.464;2023-04-01T19:42:42;10.19;84.89
71184;DHT22;58887;51.980;4.464;2023-04-01T19:45:51;10.11;85.06
71184;DHT22;58887;51.980;4.464;2023-04-01T19:48:58;10.19;84.78
71184;DHT22;58887;51.980;4.464;2023-04-01T19:56:57;10.19;84.41
71184;DHT22;58887;51.980;4.464;2023-04-01T19:59:35;10.25;84.61
71184;DHT22;58887;51.980;4.464;2023-04-01T20:04:41;10.13;84.83
71184;DHT22;58887;51.980;4.464;2023-04-01T20:07:16;10.16;84.84
71184;DHT22;58887;51.980;4.464;2023-04-01T20:17:58;10.02;84.73
71184;DHT22;58887;51.980;4.464;2023-04-01T20:20:28;9.94;84.94
71184;DHT22;58887;51.980;4.464;2023-04-01T20:23:06;9.98;84.96
71184;DHT22;58887;51.980;4.464;2023-04-01T20:25:46;9.87;84.85
71184;DHT22;58887;51.980;4.464;2023-04-01T20:36:36;9.91;84.18
71184;DHT22;58887;51.980;4.464;2023-04-01T20:45:28;9.85;84.34
71184;DHT22;58887;51.980;4.464;2023-04-01T20:48:37;9.82;84.67
71184;DHT22;58887;51.980;4.464;2023-04-01T20:51:07;9.80;84.37
71184;DHT22;58887;51.980;4.464;2023-04-01T20:53:43;9.85;84.34
71184;DHT22;58887;51.980;4.464;2023-04-01T21:10:18;9.64;83.38
71184;DHT22;58887;51.980;4.464;2023-04-01T21:13:10;9.57;83.09
71184;DHT22;58887;51.980;4.464;2023-04-01T21:16:08;9.51;83.14
71184;DHT22;58887;51.980;4.464;2023-04-01T21:22:25;9.65;82.92
71184;DHT22;58887;51.980;4.464;2023-04-01T21:28:11;9.53;83.61
71184;DHT22;58887;51.980;4.464;2023-04-01T21:31:10;9.47;83.34
71184;DHT22;58887;51.980;4.464;2023-04-01T21:34:04;9.37;83.43
71184;DHT22;58887;51.980;4.464;2023-04-01T21:54:01;9.23;82.74
71184;DHT22;58887;51.980;4.464;2023-04-01T21:57:02;9.12;82.62
71184;DHT22;58887;51.980;4.464;2023-04-01T21:59:48;9.13;82.87
71184;DHT22;58887;51.980;4.464;2023-04-01T22:05:47;8.93;82.45
71184;DHT22;58887;51.980;4.464;2023-04-01T22:08:42;8.96;82.60
71184;DHT22;58887;51.980;4.464;2023-04-01T22:16:56;8.78;82.29
71184;DHT22;58887;51.980;4.464;2023-04-01T22:22:22;8.85;82.24
71184;DHT22;58887;51.980;4.464;2023-04-01T22:33:11;8.74;82.50
71184;DHT22;58887;51.980;4.464;2023-04-01T22:43:39;8.93;82.46
71184;DHT22;58887;51.980;4.464;2023-04-01T22:49:02;8.76;82.18
71184;DHT22;58887;51.980;4.464;2023-04-01T22:54:31;8.74;82.37
71184;DHT22;58887;51.980;4.464;2023-04-01T22:57:17;8.76;82.40
71184;DHT22;58887;51.980;4.464;2023-04-01T23:00:07;8.78;82.45
71184;DHT22;58887;51.980;4.464;2023-04-01T23:02:39;8.81;82.61
71184;DHT22;58887;51.980;4.464;2023-04-01T23:05:13;8.85;82.52
71184;DHT22;58887;51.980;4.464;2023-04-01T23:10:59;8.96;81.95
71184;DHT22;58887;51.980;4.464;2023-04-01T23:14:03;8.82;81.89
71184;DHT22;58887;51.980;4.464;2023-04-01T23:16:41;8.67;82.40
71184;DHT22;58887;51.980;4.464;2023-04-01T23:21:54;8.65;82.42
71184;DHT22;58887;51.980;4.464;2023-04-01T23:24:40;8.68;82.14
71184;DHT22;58887;51.980;4.464;2023-04-01T23:27:20;8.71;82.00
71184;DHT22;58887;51.980;4.464;2023-04-01T23:29:47;8.65;82.34
71184;DHT22;58887;51.980;4.464;2023-04-01T23:32:18;8.65;82.19
71184;DHT22;58887;51.980;4.464;2023-04-01T23:35:02;8.62;82.31
71184;DHT22;58887;51.980;4.464;2023-04-01T23:37:30;8.65;82.13
71184;DHT22;58887;51.980;4.464;2023-04-01T23:39:57;8.69;82.11
71184;DHT22;58887;51.980;4.464;2023-04-01T23:42:27;8.69;82.16
71184;DHT22;58887;51.980;4.464;2023-04-01T23:44:57;8.60;82.02
71184;DHT22;58887;51.980;4.464;2023-04-01T23:47:33;8.68;82.38
71184;DHT22;58887;51.980;4.464;2023-04-01T23:50:05;8.65;82.24
71184;DHT22;58887;51.980;4.464;2023-04-01T23:52:52;8.60;82.54
71184;DHT22;58887;51.980;4.464;2023-04-01T23:55:23;8.60;82.35
